sensor_id;sensor_type;location;lat;lon;timestamp;temperature;humidity
21928;DHT22;11128;51.096;17.190;2023-02-23T00:04:26;2.20;99.90
21928;DHT22;11128;51.096;17.190;2023-02-23T00:09:29;2.10;1.00
21928;DHT22;11128;51.096;17.190;2023-02-23T00:14:36;2.10;1.00
21928;DHT22;11128;51.096;17.190;2023-02-23T00:19:38;3.30;1.00
21928;DHT22;11128;51.096;17.190;2023-02-23T00:24:39;1.90;31.60
21928;DHT22;11128;51.096;17.190;2023-02-23T00:29:42;1.90;1.00
21928;DHT22;11128;51.096;17.190;2023-02-23T00:34:43;3.00;1.00
21928;DHT22;11128;51.096;17.190;2023-02-23T00:39:44;1.90;1.00
21928;DHT22;11128;51.096;17.190;2023-02-23T00:44:46;2.50;1.00
21928;DHT22;11128;51.096;17.190;2023-02-23T00:49:48;1.60;1.00
21928;DHT22;11128;51.096;17.190;2023-02-23T00:54:50;1.70;1.00
21928;DHT22;11128;51.096;17.190;2023-02-23T00:59:51;1.70;1.00
21928;DHT22;11128;51.096;17.190;2023-02-23T01:04:52;1.70;1.00
21928;DHT22;11128;51.096;17.190;2023-02-23T01:09:53;1.60;1.00
21928;DHT22;11128;51.096;17.190;2023-02-23T01:14:55;1.60;1.00
21928;DHT22;11128;51.096;17.190;2023-02-23T01:19:56;1.50;1.00
21928;DHT22;11128;51.096;17.190;2023-02-23T01:24:57;1.50;12.10
21928;DHT22;11128;51.096;17.190;2023-02-23T01:29:59;1.50;70.10
21928;DHT22;11128;51.096;17.190;2023-02-23T01:35:00;1.50;99.90
21928;DHT22;11128;51.096;17.190;2023-02-23T01:40:02;1.40;1.00
21928;DHT22;11128;51.096;17.190;2023-02-23T01:50:36;1.40;94.30
21928;DHT22;11128;51.096;17.190;2023-02-23T01:55:38;1.40;1.00
21928;DHT22;11128;51.096;17.190;2023-02-23T02:00:43;1.30;1.00
21928;DHT22;11128;51.096;17.190;2023-02-23T02:05:47;1.30;1.00
21928;DHT22;11128;51.096;17.190;2023-02-23T02:10:50;1.20;99.90
21928;DHT22;11128;51.096;17.190;2023-02-23T02:16:16;1.30;1.00
21928;DHT22;11128;51.096;17.190;2023-02-23T02:42:18;1.10;1.00
21928;DHT22;11128;51.096;17.190;2023-02-23T02:47:42;1.10;1.00
21928;DHT22;11128;51.096;17.190;2023-02-23T02:52:54;1.00;99.90
21928;DHT22;11128;51.096;17.190;2023-02-23T02:57:57;1.00;99.90
21928;DHT22;11128;51.096;17.190;2023-02-23T03:02:59;0.90;1.00
21928;DHT22;11128;51.096;17.190;2023-02-23T03:08:30;1.40;99.90
21928;DHT22;11128;51.096;17.190;2023-02-23T03:14:14;1.00;1.00
21928;DHT22;11128;51.096;17.190;2023-02-23T03:20:05;1.00;1.00
21928;DHT22;11128;51.096;17.190;2023-02-23T03:31:36;0.90;99.90
21928;DHT22;11128;51.096;17.190;2023-02-23T03:42:35;0.90;1.00
21928;DHT22;11128;51.096;17.190;2023-02-23T03:47:58;0.90;1.00
21928;DHT22;11128;51.096;17.190;2023-02-23T03:53:24;1.00;99.90
21928;DHT22;11128;51.096;17.190;2023-02-23T03:58:55;1.10;1.00
21928;DHT22;11128;51.096;17.190;2023-02-23T04:04:18;0.90;1.00
21928;DHT22;11128;51.096;17.190;2023-02-23T04:09:38;0.90;1.00
21928;DHT22;11128;51.096;17.190;2023-02-23T04:20:12;1.00;1.00
21928;DHT22;11128;51.096;17.190;2023-02-23T04:25:15;0.90;93.20
21928;DHT22;11128;51.096;17.190;2023-02-23T04:30:18;1.00;1.00
21928;DHT22;11128;51.096;17.190;2023-02-23T04:35:20;0.90;1.00
21928;DHT22;11128;51.096;17.190;2023-02-23T04:40:22;0.80;1.00
21928;DHT22;11128;51.096;17.190;2023-02-23T04:45:23;0.80;1.00
21928;DHT22;11128;51.096;17.190;2023-02-23T04:50:25;0.80;1.00
21928;DHT22;11128;51.096;17.190;2023-02-23T04:55:27;2.00;1.00
21928;DHT22;11128;51.096;17.190;2023-02-23T05:00:29;0.60;14.80
21928;DHT22;11128;51.096;17.190;2023-02-23T05:05:30;0.80;1.00
21928;DHT22;11128;51.096;17.190;2023-02-23T05:10:32;0.90;1.00
21928;DHT22;11128;51.096;17.190;2023-02-23T05:15:33;0.90;1.00
21928;DHT22;11128;51.096;17.190;2023-02-23T05:20:34;2.30;1.00
21928;DHT22;11128;51.096;17.190;2023-02-23T05:25:37;0.90;99.90
21928;DHT22;11128;51.096;17.190;2023-02-23T05:30:38;0.70;99.90
21928;DHT22;11128;51.096;17.190;2023-02-23T05:35:40;0.70;99.90
21928;DHT22;11128;51.096;17.190;2023-02-23T05:40:41;0.60;1.00
21928;DHT22;11128;51.096;17.190;2023-02-23T05:45:43;0.60;1.00
21928;DHT22;11128;51.096;17.190;2023-02-23T05:50:44;0.60;1.00
21928;DHT22;11128;51.096;17.190;2023-02-23T05:55:46;0.60;1.00
21928;DHT22;11128;51.096;17.190;2023-02-23T06:00:47;0.60;1.00
21928;DHT22;11128;51.096;17.190;2023-02-23T06:05:50;0.60;1.00
21928;DHT22;11128;51.096;17.190;2023-02-23T06:10:52;0.60;1.00
21928;DHT22;11128;51.096;17.190;2023-02-23T06:15:53;0.90;1.00
21928;DHT22;11128;51.096;17.190;2023-02-23T06:20:58;1.10;1.00
21928;DHT22;11128;51.096;17.190;2023-02-23T06:26:00;0.80;1.00
21928;DHT22;11128;51.096;17.190;2023-02-23T06:31:01;0.80;1.00
21928;DHT22;11128;51.096;17.190;2023-02-23T06:36:03;0.90;1.00
21928;DHT22;11128;51.096;17.190;2023-02-23T06:41:09;1.00;99.90
21928;DHT22;11128;51.096;17.190;2023-02-23T06:46:10;1.00;99.90
21928;DHT22;11128;51.096;17.190;2023-02-23T06:51:11;1.10;99.90
21928;DHT22;11128;51.096;17.190;2023-02-23T06:56:13;1.40;1.00
21928;DHT22;11128;51.096;17.190;2023-02-23T07:01:14;1.20;1.00
21928;DHT22;11128;51.096;17.190;2023-02-23T07:06:15;1.80;1.00
21928;DHT22;11128;51.096;17.190;2023-02-23T07:11:17;1.30;1.00
21928;DHT22;11128;51.096;17.190;2023-02-23T07:16:19;1.30;99.90
21928;DHT22;11128;51.096;17.190;2023-02-23T07:21:21;2.10;1.00
21928;DHT22;11128;51.096;17.190;2023-02-23T07:26:22;1.60;1.00
21928;DHT22;11128;51.096;17.190;2023-02-23T07:31:24;1.60;4.20
21928;DHT22;11128;51.096;17.190;2023-02-23T07:36:26;1.70;1.00
21928;DHT22;11128;51.096;17.190;2023-02-23T07:41:27;2.10;1.00
21928;DHT22;11128;51.096;17.190;2023-02-23T07:46:28;1.90;1.00
21928;DHT22;11128;51.096;17.190;2023-02-23T07:51:29;2.10;99.90
21928;DHT22;11128;51.096;17.190;2023-02-23T07:56:32;2.00;1.00
21928;DHT22;11128;51.096;17.190;2023-02-23T08:01:33;3.50;64.90
21928;DHT22;11128;51.096;17.190;2023-02-23T08:06:36;2.40;1.00
21928;DHT22;11128;51.096;17.190;2023-02-23T08:11:37;3.30;32.50
21928;DHT22;11128;51.096;17.190;2023-02-23T08:16:39;2.80;1.00
21928;DHT22;11128;51.096;17.190;2023-02-23T08:21:41;3.30;1.00
21928;DHT22;11128;51.096;17.190;2023-02-23T08:26:43;3.40;1.00
21928;DHT22;11128;51.096;17.190;2023-02-23T08:31:45;3.60;99.90
21928;DHT22;11128;51.096;17.190;2023-02-23T08:36:46;3.80;1.00
21928;DHT22;11128;51.096;17.190;2023-02-23T08:41:47;3.90;1.00
21928;DHT22;11128;51.096;17.190;2023-02-23T08:46:49;4.20;1.00
21928;DHT22;11128;51.096;17.190;2023-02-23T08:51:50;4.70;99.90
21928;DHT22;11128;51.096;17.190;2023-02-23T08:56:54;5.10;1.00
21928;DHT22;11128;51.096;17.190;2023-02-23T09:01:56;5.40;1.00
21928;DHT22;11128;51.096;17.190;2023-02-23T09:06:58;6.10;1.00
21928;DHT22;11128;51.096;17.190;2023-02-23T09:11:59;6.10;1.00
21928;DHT22;11128;51.096;17.190;2023-02-23T09:17:01;6.00;1.00
21928;DHT22;11128;51.096;17.190;2023-02-23T09:22:02;6.40;1.00
21928;DHT22;11128;51.096;17.190;2023-02-23T09:27:04;6.70;1.00
21928;DHT22;11128;51.096;17.190;2023-02-23T09:32:07;7.20;99.90
21928;DHT22;11128;51.096;17.190;2023-02-23T09:37:09;7.30;99.90
21928;DHT22;11128;51.096;17.190;2023-02-23T09:42:14;7.40;99.90
21928;DHT22;11128;51.096;17.190;2023-02-23T09:52:40;7.30;99.90
21928;DHT22;11128;51.096;17.190;2023-02-23T09:57:47;7.90;99.90
21928;DHT22;11128;51.096;17.190;2023-02-23T10:08:05;8.60;99.90
21928;DHT22;11128;51.096;17.190;2023-02-23T10:18:42;9.60;99.90
21928;DHT22;11128;51.096;17.190;2023-02-23T10:23:52;9.60;99.90
21928;DHT22;11128;51.096;17.190;2023-02-23T10:28:57;9.40;99.90
21928;DHT22;11128;51.096;17.190;2023-02-23T10:34:03;10.00;81.00
21928;DHT22;11128;51.096;17.190;2023-02-23T10:39:07;9.90;49.10
21928;DHT22;11128;51.096;17.190;2023-02-23T10:44:23;10.20;54.00
21928;DHT22;11128;51.096;17.190;2023-02-23T10:49:34;9.90;41.80
21928;DHT22;11128;51.096;17.190;2023-02-23T10:54:46;9.90;65.10
21928;DHT22;11128;51.096;17.190;2023-02-23T11:10:31;9.50;99.90
21928;DHT22;11128;51.096;17.190;2023-02-23T11:15:36;9.10;99.90
21928;DHT22;11128;51.096;17.190;2023-02-23T11:20:45;9.20;99.90
21928;DHT22;11128;51.096;17.190;2023-02-23T11:25:51;9.70;99.90
21928;DHT22;11128;51.096;17.190;2023-02-23T11:30:58;9.50;99.90
21928;DHT22;11128;51.096;17.190;2023-02-23T11:36:25;9.60;99.90
21928;DHT22;11128;51.096;17.190;2023-02-23T11:41:27;10.00;99.90
21928;DHT22;11128;51.096;17.190;2023-02-23T11:46:35;10.40;69.40
21928;DHT22;11128;51.096;17.190;2023-02-23T11:51:40;10.50;64.20
21928;DHT22;11128;51.096;17.190;2023-02-23T11:56:47;10.90;56.70
21928;DHT22;11128;51.096;17.190;2023-02-23T12:01:58;10.70;46.50
21928;DHT22;11128;51.096;17.190;2023-02-23T12:07:28;10.80;36.50
21928;DHT22;11128;51.096;17.190;2023-02-23T12:12:44;10.60;53.80
21928;DHT22;11128;51.096;17.190;2023-02-23T12:17:52;10.70;71.70
21928;DHT22;11128;51.096;17.190;2023-02-23T12:23:05;10.60;99.90
21928;DHT22;11128;51.096;17.190;2023-02-23T12:28:35;11.10;94.20
21928;DHT22;11128;51.096;17.190;2023-02-23T12:33:41;11.10;99.90
21928;DHT22;11128;51.096;17.190;2023-02-23T12:38:50;11.00;99.90
21928;DHT22;11128;51.096;17.190;2023-02-23T12:43:58;11.10;99.20
21928;DHT22;11128;51.096;17.190;2023-02-23T12:49:21;11.10;99.90
21928;DHT22;11128;51.096;17.190;2023-02-23T12:54:26;11.40;99.90
21928;DHT22;11128;51.096;17.190;2023-02-23T13:16:58;12.60;10.50
21928;DHT22;11128;51.096;17.190;2023-02-23T13:21:36;12.90;1.00
21928;DHT22;11128;51.096;17.190;2023-02-23T13:32:03;12.50;11.10
21928;DHT22;11128;51.096;17.190;2023-02-23T13:37:06;12.70;1.00
21928;DHT22;11128;51.096;17.190;2023-02-23T13:47:59;13.00;1.00
21928;DHT22;11128;51.096;17.190;2023-02-23T13:53:06;12.60;2.30
21928;DHT22;11128;51.096;17.190;2023-02-23T13:58:13;12.80;6.70
21928;DHT22;11128;51.096;17.190;2023-02-23T14:03:24;13.60;1.00
21928;DHT22;11128;51.096;17.190;2023-02-23T14:08:36;13.60;1.00
21928;DHT22;11128;51.096;17.190;2023-02-23T14:13:40;13.40;1.00
21928;DHT22;11128;51.096;17.190;2023-02-23T14:24:23;13.60;1.00
21928;DHT22;11128;51.096;17.190;2023-02-23T14:29:25;13.90;1.00
21928;DHT22;11128;51.096;17.190;2023-02-23T14:34:50;14.10;1.00
21928;DHT22;11128;51.096;17.190;2023-02-23T14:40:30;14.50;1.00
21928;DHT22;11128;51.096;17.190;2023-02-23T14:45:29;13.60;1.00
21928;DHT22;11128;51.096;17.190;2023-02-23T14:50:33;13.20;1.00
21928;DHT22;11128;51.096;17.190;2023-02-23T14:55:40;12.60;1.00
21928;DHT22;11128;51.096;17.190;2023-02-23T15:00:43;12.20;52.10
21928;DHT22;11128;51.096;17.190;2023-02-23T15:05:56;12.00;96.20
21928;DHT22;11128;51.096;17.190;2023-02-23T15:11:12;11.90;99.90
21928;DHT22;11128;51.096;17.190;2023-02-23T15:16:26;11.80;99.90
21928;DHT22;11128;51.096;17.190;2023-02-23T15:21:28;11.60;99.90
21928;DHT22;11128;51.096;17.190;2023-02-23T15:26:34;11.40;99.90
21928;DHT22;11128;51.096;17.190;2023-02-23T15:31:36;11.00;99.90
21928;DHT22;11128;51.096;17.190;2023-02-23T15:36:40;10.90;99.90
21928;DHT22;11128;51.096;17.190;2023-02-23T15:41:46;10.70;99.90
21928;DHT22;11128;51.096;17.190;2023-02-23T15:46:57;10.50;1.00
21928;DHT22;11128;51.096;17.190;2023-02-23T15:52:04;10.40;1.00
21928;DHT22;11128;51.096;17.190;2023-02-23T15:57:07;10.10;1.00
21928;DHT22;11128;51.096;17.190;2023-02-23T16:02:16;10.00;1.00
21928;DHT22;11128;51.096;17.190;2023-02-23T16:12:35;9.70;1.00
21928;DHT22;11128;51.096;17.190;2023-02-23T16:22:40;9.40;1.00
21928;DHT22;11128;51.096;17.190;2023-02-23T16:27:51;9.30;1.00
21928;DHT22;11128;51.096;17.190;2023-02-23T16:33:15;9.20;1.00
21928;DHT22;11128;51.096;17.190;2023-02-23T16:38:26;9.10;22.90
21928;DHT22;11128;51.096;17.190;2023-02-23T16:43:29;8.90;99.90
21928;DHT22;11128;51.096;17.190;2023-02-23T16:48:31;8.80;99.90
21928;DHT22;11128;51.096;17.190;2023-02-23T16:53:32;8.70;99.90
21928;DHT22;11128;51.096;17.190;2023-02-23T16:58:34;8.50;1.00
21928;DHT22;11128;51.096;17.190;2023-02-23T17:03:36;8.50;1.00
21928;DHT22;11128;51.096;17.190;2023-02-23T17:08:37;8.40;1.00
21928;DHT22;11128;51.096;17.190;2023-02-23T17:13:39;8.30;1.00
21928;DHT22;11128;51.096;17.190;2023-02-23T17:18:40;8.20;1.00
21928;DHT22;11128;51.096;17.190;2023-02-23T17:23:42;8.10;99.90
21928;DHT22;11128;51.096;17.190;2023-02-23T17:28:51;8.00;99.90
21928;DHT22;11128;51.096;17.190;2023-02-23T17:33:53;7.90;99.90
21928;DHT22;11128;51.096;17.190;2023-02-23T17:38:55;7.90;99.90
21928;DHT22;11128;51.096;17.190;2023-02-23T17:43:58;7.90;99.90
21928;DHT22;11128;51.096;17.190;2023-02-23T17:49:03;7.80;1.00
21928;DHT22;11128;51.096;17.190;2023-02-23T17:54:04;7.70;1.00
21928;DHT22;11128;51.096;17.190;2023-02-23T17:59:06;7.70;1.00
21928;DHT22;11128;51.096;17.190;2023-02-23T18:04:07;7.60;1.00
21928;DHT22;11128;51.096;17.190;2023-02-23T18:09:09;7.70;99.90
21928;DHT22;11128;51.096;17.190;2023-02-23T18:14:14;7.70;96.90
21928;DHT22;11128;51.096;17.190;2023-02-23T18:19:18;7.70;99.90
21928;DHT22;11128;51.096;17.190;2023-02-23T18:24:23;7.70;99.90
21928;DHT22;11128;51.096;17.190;2023-02-23T18:29:25;7.70;1.00
21928;DHT22;11128;51.096;17.190;2023-02-23T18:34:29;7.80;1.00
21928;DHT22;11128;51.096;17.190;2023-02-23T18:39:31;7.80;55.80
21928;DHT22;11128;51.096;17.190;2023-02-23T18:44:33;7.90;99.90
21928;DHT22;11128;51.096;17.190;2023-02-23T18:49:35;7.90;99.90
21928;DHT22;11128;51.096;17.190;2023-02-23T18:54:39;7.90;1.00
21928;DHT22;11128;51.096;17.190;2023-02-23T18:59:40;8.00;99.90
21928;DHT22;11128;51.096;17.190;2023-02-23T19:04:42;7.80;99.90
21928;DHT22;11128;51.096;17.190;2023-02-23T19:09:44;7.80;1.00
21928;DHT22;11128;51.096;17.190;2023-02-23T19:14:49;7.80;1.00
21928;DHT22;11128;51.096;17.190;2023-02-23T19:19:51;7.80;1.00
21928;DHT22;11128;51.096;17.190;2023-02-23T19:24:56;7.90;1.00
21928;DHT22;11128;51.096;17.190;2023-02-23T19:29:57;7.80;1.00
21928;DHT22;11128;51.096;17.190;2023-02-23T19:34:59;7.90;1.00
21928;DHT22;11128;51.096;17.190;2023-02-23T19:40:01;7.80;1.00
21928;DHT22;11128;51.096;17.190;2023-02-23T19:45:02;7.80;1.00
21928;DHT22;11128;51.096;17.190;2023-02-23T19:50:04;7.80;1.00
21928;DHT22;11128;51.096;17.190;2023-02-23T19:55:06;7.70;1.00
21928;DHT22;11128;51.096;17.190;2023-02-23T20:00:08;7.70;1.00
21928;DHT22;11128;51.096;17.190;2023-02-23T20:05:13;7.70;35.70
21928;DHT22;11128;51.096;17.190;2023-02-23T20:10:15;7.60;28.00
21928;DHT22;11128;51.096;17.190;2023-02-23T20:15:16;7.50;99.90
21928;DHT22;11128;51.096;17.190;2023-02-23T20:20:18;7.50;99.90
21928;DHT22;11128;51.096;17.190;2023-02-23T20:25:21;7.40;1.00
21928;DHT22;11128;51.096;17.190;2023-02-23T20:30:23;7.40;1.00
21928;DHT22;11128;51.096;17.190;2023-02-23T20:35:24;7.40;1.00
21928;DHT22;11128;51.096;17.190;2023-02-23T20:40:26;7.40;1.00
21928;DHT22;11128;51.096;17.190;2023-02-23T20:45:27;7.40;1.00
21928;DHT22;11128;51.096;17.190;2023-02-23T20:50:28;7.50;1.00
21928;DHT22;11128;51.096;17.190;2023-02-23T20:55:33;7.60;1.00
21928;DHT22;11128;51.096;17.190;2023-02-23T21:00:35;7.60;1.00
21928;DHT22;11128;51.096;17.190;2023-02-23T21:05:39;7.60;1.00
21928;DHT22;11128;51.096;17.190;2023-02-23T21:10:42;7.60;99.90
21928;DHT22;11128;51.096;17.190;2023-02-23T21:15:44;7.60;99.90
21928;DHT22;11128;51.096;17.190;2023-02-23T21:20:45;7.70;99.90
21928;DHT22;11128;51.096;17.190;2023-02-23T21:25:47;7.70;99.90
21928;DHT22;11128;51.096;17.190;2023-02-23T21:30:48;7.70;99.90
21928;DHT22;11128;51.096;17.190;2023-02-23T21:35:50;7.70;99.90
21928;DHT22;11128;51.096;17.190;2023-02-23T21:40:58;7.70;99.90
21928;DHT22;11128;51.096;17.190;2023-02-23T21:46:09;7.70;99.90
21928;DHT22;11128;51.096;17.190;2023-02-23T21:51:13;7.70;99.90
21928;DHT22;11128;51.096;17.190;2023-02-23T21:56:18;7.80;99.90
21928;DHT22;11128;51.096;17.190;2023-02-23T22:01:24;7.70;99.90
21928;DHT22;11128;51.096;17.190;2023-02-23T22:06:28;7.80;99.90
21928;DHT22;11128;51.096;17.190;2023-02-23T22:11:31;7.70;99.90
21928;DHT22;11128;51.096;17.190;2023-02-23T22:16:38;7.70;99.90
21928;DHT22;11128;51.096;17.190;2023-02-23T22:21:42;7.70;99.90
21928;DHT22;11128;51.096;17.190;2023-02-23T22:26:45;7.80;99.90
21928;DHT22;11128;51.096;17.190;2023-02-23T22:31:54;7.80;99.90
21928;DHT22;11128;51.096;17.190;2023-02-23T22:36:55;7.80;99.90
21928;DHT22;11128;51.096;17.190;2023-02-23T22:41:57;7.80;1.00
21928;DHT22;11128;51.096;17.190;2023-02-23T22:46:58;7.80;96.60
21928;DHT22;11128;51.096;17.190;2023-02-23T22:51:59;7.70;99.90
21928;DHT22;11128;51.096;17.190;2023-02-23T22:57:01;7.70;99.90
21928;DHT22;11128;51.096;17.190;2023-02-23T23:02:02;7.60;1.00
21928;DHT22;11128;51.096;17.190;2023-02-23T23:07:04;7.60;1.00
21928;DHT22;11128;51.096;17.190;2023-02-23T23:12:06;7.60;1.00
21928;DHT22;11128;51.096;17.190;2023-02-23T23:17:08;7.70;1.00
21928;DHT22;11128;51.096;17.190;2023-02-23T23:22:09;7.60;1.00
21928;DHT22;11128;51.096;17.190;2023-02-23T23:27:14;7.60;1.00
21928;DHT22;11128;51.096;17.190;2023-02-23T23:32:17;7.60;1.00
21928;DHT22;11128;51.096;17.190;2023-02-23T23:37:18;7.50;43.80
21928;DHT22;11128;51.096;17.190;2023-02-23T23:42:20;7.50;99.90
21928;DHT22;11128;51.096;17.190;2023-02-23T23:47:22;7.70;1.00
21928;DHT22;11128;51.096;17.190;2023-02-23T23:52:23;7.60;1.00
21928;DHT22;11128;51.096;17.190;2023-02-23T23:57:25;7.80;99.90
